Time;durP1;ratioP1;P1;durP2;ratioP2;P2;SDS_P1;SDS_P2;PMS_P1;PMS_P2;Temp;Humidity;BMP_temperature;BMP_pressure;BME280_temperature;BME280_humidity;BME280_pressure;Samples;Min_cycle;Max_cycle;Signal;HPM_P1;HPM_P2
2023/01/05 00:06:31;;;;;;;1.90;1.20;;;11.60;99.90;;;;;;20919165;28;20756;-73
2023/01/05 00:26:53;;;;;;;2.50;1.17;;;11.60;99.90;;;;;;20918570;28;20234;-79
2023/01/05 00:36:54;;;;;;;1.03;0.93;;;11.70;99.90;;;;;;20916593;28;20236;-73
2023/01/05 00:46:56;;;;;;;1.10;0.93;;;11.70;99.90;;;;;;20915642;28;20238;-73
2023/01/05 00:56:58;;;;;;;1.87;1.03;;;11.70;99.90;;;;;;20915220;28;20212;-72
2023/01/05 01:07:01;;;;;;;0.80;0.80;;;11.70;99.90;;;;;;20914175;28;20239;-73
2023/01/05 01:17:03;;;;;;;0.80;0.80;;;11.80;99.90;;;;;;20913467;28;20265;-73
2023/01/05 01:27:05;;;;;;;0.70;0.70;;;11.80;99.90;;;;;;20912921;28;20234;-72
2023/01/05 01:37:06;;;;;;;0.70;0.70;;;11.80;99.90;;;;;;20912237;28;20275;-73
2023/01/05 01:47:14;;;;;;;0.80;0.80;;;11.90;99.90;;;;;;20911543;28;20641;-75
2023/01/05 01:57:15;;;;;;;4.37;0.93;;;11.90;99.90;;;;;;20913332;28;20218;-75
2023/01/05 02:07:17;;;;;;;0.70;0.70;;;11.80;99.90;;;;;;20912526;28;20236;-79
2023/01/05 02:17:36;;;;;;;0.50;0.50;;;11.80;99.90;;;;;;20913281;28;20211;-81
2023/01/05 02:28:02;;;;;;;1.47;0.77;;;11.90;99.90;;;;;;20913178;28;20246;-75
2023/01/05 02:38:30;;;;;;;0.97;0.80;;;12.00;99.90;;;;;;20916196;28;20281;-76
2023/01/05 02:48:32;;;;;;;0.40;0.40;;;12.00;99.90;;;;;;20928999;28;20761;-82
2023/01/05 02:58:44;;;;;;;0.87;0.80;;;11.90;99.90;;;;;;20929597;28;20644;-80
2023/01/05 03:08:53;;;;;;;0.70;0.70;;;11.90;99.90;;;;;;20926105;28;20235;-81
2023/01/05 03:39:42;;;;;;;0.63;0.60;;;12.00;99.90;;;;;;20923747;28;20289;-79
2023/01/05 03:49:43;;;;;;;6.97;1.10;;;12.00;99.90;;;;;;20921560;28;20305;-80
2023/01/05 03:59:45;;;;;;;2.47;0.90;;;12.00;99.90;;;;;;20920976;28;20209;-80
2023/01/05 04:09:47;;;;;;;5.33;1.00;;;11.90;99.90;;;;;;20921612;28;20235;-82
2023/01/05 04:19:48;;;;;;;3.33;0.90;;;12.00;99.90;;;;;;20921518;28;20208;-81
2023/01/05 04:29:50;;;;;;;1.90;0.97;;;12.00;99.90;;;;;;20920369;28;20294;-81
2023/01/05 04:39:51;;;;;;;2.77;1.20;;;12.00;99.90;;;;;;20919831;28;20234;-79
2023/01/05 04:49:53;;;;;;;4.43;1.50;;;12.00;99.90;;;;;;20919264;28;20240;-84
2023/01/05 04:59:55;;;;;;;6.73;1.70;;;11.90;99.90;;;;;;20917516;28;20210;-82
2023/01/05 05:09:56;;;;;;;6.63;1.77;;;11.90;99.90;;;;;;20916748;28;20764;-77
2023/01/05 05:19:58;;;;;;;11.27;2.70;;;11.80;99.90;;;;;;20915718;28;20207;-80
2023/01/05 05:29:59;;;;;;;8.43;1.90;;;11.80;99.90;;;;;;20914442;28;20302;-77
2023/01/05 05:40:01;;;;;;;7.60;1.93;;;11.70;99.90;;;;;;20914313;28;20232;-79
2023/01/05 05:50:03;;;;;;;5.93;1.47;;;11.70;99.40;;;;;;20912530;28;20763;-79
2023/01/05 06:00:07;;;;;;;7.73;2.07;;;11.60;98.80;;;;;;20912932;28;20209;-79
2023/01/05 06:10:09;;;;;;;9.90;2.23;;;11.70;97.60;;;;;;20912581;28;20288;-79
2023/01/05 06:20:11;;;;;;;11.43;1.97;;;11.70;96.30;;;;;;20912190;28;20207;-77
2023/01/05 06:30:13;;;;;;;14.20;2.70;;;11.50;95.70;;;;;;20914487;28;20841;-81
2023/01/05 06:40:15;;;;;;;10.53;1.87;;;11.70;95.20;;;;;;20911920;28;20239;-79
2023/01/05 06:50:16;;;;;;;9.13;2.73;;;11.60;95.00;;;;;;20910510;28;20717;-79
2023/01/05 07:00:18;;;;;;;6.63;2.03;;;11.60;94.80;;;;;;20909248;28;20233;-80
2023/01/05 07:10:20;;;;;;;11.10;2.53;;;11.70;94.70;;;;;;20909584;28;20238;-80
2023/01/05 07:20:22;;;;;;;11.27;2.17;;;11.70;94.80;;;;;;20910014;28;20606;-82
2023/01/05 07:30:23;;;;;;;6.13;1.80;;;11.70;94.80;;;;;;20921130;28;20590;-72
2023/01/05 07:40:25;;;;;;;11.90;1.90;;;11.70;95.00;;;;;;20922131;28;20709;-73
2023/01/05 07:50:28;;;;;;;10.83;2.37;;;11.70;95.10;;;;;;20925279;28;20232;-83
2023/01/05 08:00:29;;;;;;;6.80;2.17;;;11.60;95.30;;;;;;20923254;28;20260;-80
2023/01/05 08:10:31;;;;;;;10.23;2.00;;;11.60;95.60;;;;;;20922042;28;20284;-81
2023/01/05 08:20:33;;;;;;;5.50;1.77;;;11.60;95.40;;;;;;20922415;28;20218;-80
2023/01/05 08:30:34;;;;;;;4.93;1.60;;;11.70;95.10;;;;;;20919424;28;20254;-80
2023/01/05 08:40:37;;;;;;;8.93;2.10;;;11.60;95.30;;;;;;20918001;28;20290;-80
2023/01/05 08:50:38;;;;;;;7.37;1.90;;;11.80;95.00;;;;;;20917279;28;20234;-80
2023/01/05 09:00:40;;;;;;;9.27;3.43;;;11.90;95.00;;;;;;20917344;28;20209;-81
2023/01/05 09:10:42;;;;;;;10.33;1.97;;;11.90;95.20;;;;;;20917794;28;20641;-83
2023/01/05 09:20:44;;;;;;;12.07;1.70;;;11.90;95.10;;;;;;20896969;28;20275;-78
2023/01/05 09:30:45;;;;;;;7.60;1.93;;;12.00;95.60;;;;;;20878739;28;20687;-82
2023/01/05 09:40:57;;;;;;;7.60;2.20;;;11.80;95.40;;;;;;20914290;28;20238;-81
2023/01/05 09:50:59;;;;;;;10.83;2.17;;;11.90;95.60;;;;;;20912825;28;20228;-83
2023/01/05 10:01:13;;;;;;;7.37;2.13;;;12.10;96.00;;;;;;20866697;28;20210;-75
2023/01/05 10:22:09;;;;;;;7.63;2.23;;;12.40;95.50;;;;;;20916303;28;20279;-77
2023/01/05 10:32:27;;;;;;;11.60;2.20;;;12.40;95.40;;;;;;20865685;28;20208;-77
2023/01/05 10:42:44;;;;;;;8.07;2.30;;;12.30;95.30;;;;;;20825808;28;20239;-75
2023/01/05 10:52:46;;;;;;;6.57;2.03;;;12.50;95.70;;;;;;20828314;28;20240;-76
2023/01/05 11:02:57;;;;;;;6.50;2.20;;;12.60;95.60;;;;;;20853125;28;20388;-76
2023/01/05 11:13:06;;;;;;;8.10;2.07;;;12.60;95.80;;;;;;20884344;28;20211;-76
2023/01/05 11:23:33;;;;;;;8.47;2.20;;;12.50;95.10;;;;;;20923816;28;20236;-76
2023/01/05 11:33:38;;;;;;;9.70;3.27;;;12.60;95.00;;;;;;20924037;28;20288;-78
2023/01/05 11:43:39;;;;;;;7.90;3.33;;;12.60;95.40;;;;;;20923131;28;20591;-76
2023/01/05 11:53:41;;;;;;;10.93;3.50;;;12.50;95.80;;;;;;20922305;28;20209;-76
2023/01/05 12:03:55;;;;;;;13.07;3.27;;;12.50;96.10;;;;;;20920491;28;20420;-75
2023/01/05 12:14:16;;;;;;;14.80;2.93;;;12.60;95.30;;;;;;20905338;28;20205;-75
2023/01/05 12:24:41;;;;;;;11.80;3.17;;;12.60;94.80;;;;;;20884278;28;20231;-76
2023/01/05 12:35:06;;;;;;;13.67;4.93;;;12.60;94.80;;;;;;20855800;28;20701;-73
2023/01/05 12:45:35;;;;;;;13.00;2.90;;;12.80;95.10;;;;;;20835350;28;20236;-74
2023/01/05 12:55:46;;;;;;;10.43;2.83;;;12.90;94.10;;;;;;20835490;28;20207;-73
2023/01/05 13:06:03;;;;;;;18.90;7.57;;;13.00;94.10;;;;;;20834839;28;20234;-76
2023/01/05 13:16:14;;;;;;;11.47;2.87;;;12.90;93.90;;;;;;20833186;28;20267;-78
2023/01/05 13:26:18;;;;;;;10.40;2.60;;;13.00;93.90;;;;;;20832780;28;20243;-72
2023/01/05 13:37:05;;;;;;;14.90;3.47;;;13.10;93.10;;;;;;20832660;28;20313;-74
2023/01/05 13:55:20;;;;;;;13.53;3.27;;;13.10;92.70;;;;;;21236892;27;20569;-76
2023/01/05 14:05:45;;;;;;;13.93;2.70;;;13.00;92.80;;;;;;21237545;28;20204;-78
2023/01/05 14:15:47;;;;;;;11.33;2.70;;;13.00;92.50;;;;;;21217916;28;20736;-75
2023/01/05 14:25:59;;;;;;;11.60;2.27;;;12.90;92.10;;;;;;21235453;28;20219;-75
2023/01/05 14:36:04;;;;;;;8.33;2.40;;;13.00;91.90;;;;;;21233538;28;20211;-74
2023/01/05 14:46:16;;;;;;;11.10;2.73;;;13.00;91.80;;;;;;21231898;28;20359;-75
2023/01/05 14:56:27;;;;;;;13.73;2.40;;;12.90;91.80;;;;;;21214041;28;20209;-73
2023/01/05 15:07:02;;;;;;;11.37;2.37;;;12.80;91.90;;;;;;21176338;28;20241;-72
2023/01/05 15:17:24;;;;;;;15.67;2.60;;;12.70;91.80;;;;;;21173003;28;20211;-71
2023/01/05 15:27:44;;;;;;;8.30;2.40;;;12.70;92.00;;;;;;21173174;28;20656;-80
2023/01/05 15:37:47;;;;;;;14.00;3.13;;;12.60;91.70;;;;;;21172216;28;20596;-76
2023/01/05 15:47:50;;;;;;;15.57;3.20;;;12.50;92.20;;;;;;21169611;28;20237;-74
2023/01/05 15:57:58;;;;;;;9.00;2.37;;;12.40;92.30;;;;;;21169424;28;20205;-71
2023/01/05 16:08:10;;;;;;;10.77;2.80;;;12.40;92.60;;;;;;21168234;28;20226;-74
2023/01/05 16:18:20;;;;;;;14.57;3.70;;;12.10;92.90;;;;;;21167268;28;20201;-74
2023/01/05 16:28:23;;;;;;;12.67;3.23;;;12.10;93.20;;;;;;21167260;28;20233;-75
2023/01/05 16:38:27;;;;;;;11.53;2.57;;;12.00;93.50;;;;;;21167253;28;20266;-73
2023/01/05 16:48:35;;;;;;;12.43;3.10;;;11.90;93.90;;;;;;21166502;28;20713;-75
2023/01/05 16:58:37;;;;;;;14.30;2.67;;;11.70;94.30;;;;;;21165457;28;20250;-75
2023/01/05 17:08:38;;;;;;;15.10;3.23;;;11.70;94.50;;;;;;21164348;28;20698;-76
2023/01/05 17:18:40;;;;;;;14.57;3.50;;;11.60;94.60;;;;;;21164189;28;20212;-73
2023/01/05 17:28:42;;;;;;;15.57;4.00;;;11.60;94.90;;;;;;21163409;28;20229;-72
2023/01/05 17:38:43;;;;;;;12.07;3.37;;;11.60;94.90;;;;;;21163049;28;20202;-73
2023/01/05 17:48:47;;;;;;;12.47;3.50;;;11.60;95.10;;;;;;21162229;28;20237;-71
2023/01/05 17:58:49;;;;;;;14.43;3.87;;;11.60;95.10;;;;;;21162780;28;20201;-73
2023/01/05 18:08:51;;;;;;;18.70;4.00;;;11.50;95.30;;;;;;21162712;28;20231;-74
2023/01/05 18:18:53;;;;;;;12.27;2.93;;;11.50;95.30;;;;;;21160744;28;20217;-74
2023/01/05 18:28:54;;;;;;;16.97;6.10;;;11.40;95.30;;;;;;21161186;28;20255;-74
2023/01/05 18:38:56;;;;;;;30.50;7.13;;;11.50;95.70;;;;;;21172270;28;20204;-73
2023/01/05 18:48:57;;;;;;;24.87;7.00;;;11.40;95.50;;;;;;21175878;28;20286;-73
2023/01/05 18:58:59;;;;;;;18.57;6.77;;;11.50;95.90;;;;;;21174947;28;20202;-76
2023/01/05 19:09:03;;;;;;;18.07;4.33;;;11.40;96.00;;;;;;21175147;28;20234;-76
2023/01/05 19:19:08;;;;;;;13.97;3.23;;;11.50;96.20;;;;;;21173959;28;20209;-77
2023/01/05 19:29:11;;;;;;;19.10;4.63;;;11.60;96.00;;;;;;21172975;28;20233;-76
2023/01/05 19:39:16;;;;;;;11.37;3.87;;;11.60;96.40;;;;;;21172893;28;20258;-75
2023/01/05 19:49:24;;;;;;;13.90;3.77;;;11.60;96.60;;;;;;21171444;28;20242;-77
2023/01/05 19:59:31;;;;;;;18.43;3.80;;;;;;;;;;21171154;28;20214;-76
2023/01/05 20:09:33;;;;;;;11.50;3.43;;;11.70;96.60;;;;;;21170622;28;20229;-75
2023/01/05 20:19:37;;;;;;;12.07;3.10;;;11.60;97.10;;;;;;21090481;28;20198;-77
2023/01/05 20:29:39;;;;;;;13.87;3.60;;;11.50;97.30;;;;;;21081879;28;20276;-80
2023/01/05 20:39:41;;;;;;;10.67;2.97;;;11.50;97.60;;;;;;21081712;28;20557;-78
2023/01/05 20:49:45;;;;;;;13.10;3.50;;;11.50;97.80;;;;;;21081401;28;20704;-77
2023/01/05 20:59:46;;;;;;;12.83;3.40;;;11.50;97.80;;;;;;21078695;28;20209;-77
2023/01/05 21:09:50;;;;;;;16.40;3.63;;;11.50;98.10;;;;;;21078713;28;20292;-77
2023/01/05 21:19:51;;;;;;;13.00;3.40;;;11.60;98.20;;;;;;21077807;28;20214;-77
2023/01/05 21:29:53;;;;;;;14.33;3.40;;;11.60;98.30;;;;;;21077319;28;20293;-78
2023/01/05 21:39:55;;;;;;;9.87;3.03;;;11.60;98.60;;;;;;21077854;28;20652;-76
2023/01/05 21:49:56;;;;;;;10.13;2.53;;;11.60;99.10;;;;;;21077247;28;20250;-76
2023/01/05 21:59:58;;;;;;;10.43;2.80;;;11.60;99.80;;;;;;21075553;28;20224;-77
2023/01/05 22:10:00;;;;;;;5.97;2.23;;;11.50;99.90;;;;;;21080168;28;20237;-76
2023/01/05 22:20:02;;;;;;;9.13;2.57;;;11.50;99.90;;;;;;21091974;28;20205;-77
2023/01/05 22:30:04;;;;;;;7.17;2.77;;;11.50;99.90;;;;;;21091090;28;20701;-76
2023/01/05 22:40:06;;;;;;;6.00;2.30;;;11.60;99.90;;;;;;21090775;28;20569;-75
2023/01/05 22:50:08;;;;;;;5.43;2.10;;;11.60;99.90;;;;;;21089354;28;20332;-77
2023/01/05 23:00:11;;;;;;;8.33;2.30;;;11.60;99.90;;;;;;21088747;28;20684;-74
2023/01/05 23:10:13;;;;;;;5.17;2.27;;;11.60;99.90;;;;;;21087691;28;20241;-76
2023/01/05 23:20:15;;;;;;;5.10;2.33;;;11.60;99.90;;;;;;21086763;28;20209;-77
2023/01/05 23:30:17;;;;;;;4.30;2.27;;;11.60;99.90;;;;;;21086484;28;20248;-77
2023/01/05 23:40:18;;;;;;;4.10;2.30;;;11.60;99.90;;;;;;21086218;28;20207;-78
2023/01/05 23:50:20;;;;;;;4.77;2.90;;;11.60;99.90;;;;;;21084462;28;20245;-78
